Time;durP1;ratioP1;P1;durP2;ratioP2;P2;SDS_P1;SDS_P2;PMS_P1;PMS_P2;Temp;Humidity;BMP_temperature;BMP_pressure;BME280_temperature;BME280_humidity;BME280_pressure;Samples;Min_cycle;Max_cycle;Signal;HPM_P1;HPM_P2
2022/05/03 00:02:52;;;;;;;26.70;16.20;;;6.00;84.80;;;;;;5039556;28;20033;-44
2022/05/03 00:05:37;;;;;;;36.35;20.88;;;6.00;84.90;;;;;;5005079;28;20045;-43
2022/05/03 00:08:13;;;;;;;21.50;13.48;;;5.90;84.70;;;;;;5061663;28;20043;-44
2022/05/03 00:11:13;;;;;;;13.98;9.15;;;5.90;84.80;;;;;;5054728;28;20091;-45
2022/05/03 00:14:09;;;;;;;8.55;6.85;;;5.90;84.90;;;;;;5023833;28;20041;-44
2022/05/03 00:16:40;;;;;;;8.27;7.05;;;5.90;84.90;;;;;;5053429;28;20024;-43
2022/05/03 00:19:06;;;;;;;11.75;8.10;;;5.80;85.00;;;;;;5052581;28;20036;-45
2022/05/03 00:21:37;;;;;;;8.20;6.68;;;5.80;85.20;;;;;;5054452;28;20029;-43
2022/05/03 00:24:06;;;;;;;8.40;6.57;;;5.80;85.30;;;;;;5053195;28;20025;-42
2022/05/03 00:26:35;;;;;;;7.93;6.82;;;5.70;85.20;;;;;;5054083;28;20374;-43
2022/05/03 00:29:06;;;;;;;;;;;5.70;85.20;;;;;;5052838;28;20025;-44
2022/05/03 00:31:38;;;;;;;7.40;5.93;;;5.70;85.20;;;;;;5055296;28;19915;-42
2022/05/03 00:34:12;;;;;;;9.48;6.72;;;5.70;85.40;;;;;;5052600;28;20040;-43
2022/05/03 00:36:38;;;;;;;9.73;7.63;;;5.70;85.40;;;;;;5043568;28;20031;-43
2022/05/03 00:39:05;;;;;;;9.70;7.40;;;5.70;85.40;;;;;;5053570;28;20108;-42
2022/05/03 00:41:48;;;;;;;8.27;6.70;;;5.70;85.40;;;;;;5036680;28;20115;-43
2022/05/03 00:45:00;;;;;;;8.10;6.88;;;5.70;85.30;;;;;;5053535;28;20025;-43
2022/05/03 00:47:51;;;;;;;7.70;6.65;;;5.70;85.30;;;;;;5031902;28;20179;-43
2022/05/03 00:50:28;;;;;;;9.13;6.97;;;5.70;85.30;;;;;;5021905;28;20565;-43
2022/05/03 00:53:18;;;;;;;9.63;6.65;;;5.70;85.40;;;;;;5053827;28;20124;-43
2022/05/03 00:56:12;;;;;;;9.43;7.40;;;5.70;85.30;;;;;;5053086;28;20056;-42
2022/05/03 00:59:01;;;;;;;9.52;7.35;;;5.70;85.40;;;;;;5051413;28;20075;-43
2022/05/03 01:01:49;;;;;;;9.38;6.55;;;5.70;85.40;;;;;;5048119;28;20025;-42
2022/05/03 01:04:37;;;;;;;8.07;6.72;;;5.80;85.40;;;;;;5052783;28;20028;-46
2022/05/03 01:07:21;;;;;;;8.55;7.00;;;5.80;85.50;;;;;;5054924;28;20158;-43
2022/05/03 01:10:17;;;;;;;7.28;6.57;;;5.70;85.50;;;;;;5051899;28;20037;-45
2022/05/03 01:13:09;;;;;;;8.43;6.80;;;5.70;85.70;;;;;;5054549;28;20036;-44
2022/05/03 01:15:49;;;;;;;9.63;7.03;;;5.80;85.70;;;;;;5051671;28;20021;-43
2022/05/03 01:18:29;;;;;;;10.98;8.27;;;5.80;85.70;;;;;;5051225;28;20083;-45
2022/05/03 01:21:29;;;;;;;8.93;7.05;;;5.80;85.70;;;;;;5053683;28;20052;-43
2022/05/03 01:24:16;;;;;;;10.30;6.20;;;5.70;85.40;;;;;;5053160;28;20033;-49
2022/05/03 01:27:04;;;;;;;10.38;7.13;;;5.70;85.40;;;;;;5068999;28;20043;-43
2022/05/03 01:29:38;;;;;;;9.25;7.35;;;5.60;85.50;;;;;;5051476;28;20069;-43
2022/05/03 01:32:22;;;;;;;9.63;6.80;;;5.60;85.50;;;;;;5051186;28;20378;-49
2022/05/03 01:34:47;;;;;;;9.52;6.65;;;5.60;85.60;;;;;;5035008;28;20044;-45
2022/05/03 01:37:43;;;;;;;9.80;7.43;;;5.60;85.90;;;;;;5052252;28;20029;-42
2022/05/03 01:40:38;;;;;;;9.90;7.55;;;5.60;85.90;;;;;;5052391;28;20342;-43
2022/05/03 01:43:11;;;;;;;10.15;7.60;;;5.70;86.20;;;;;;5050938;28;20028;-42
2022/05/03 01:46:02;;;;;;;10.00;8.50;;;5.70;86.30;;;;;;5058346;28;20121;-44
2022/05/03 01:51:44;;;;;;;10.40;8.00;;;5.80;86.50;;;;;;5053320;28;20117;-46
2022/05/03 01:54:48;;;;;;;9.43;7.97;;;5.90;86.40;;;;;;5032946;28;20450;-42
2022/05/03 01:57:22;;;;;;;10.05;8.45;;;5.90;86.50;;;;;;5032244;28;20033;-44
2022/05/03 02:00:15;;;;;;;9.85;8.30;;;5.90;86.50;;;;;;5028470;28;20346;-43
2022/05/03 02:03:02;;;;;;;10.48;8.90;;;5.90;86.40;;;;;;5039391;28;20488;-43
2022/05/03 02:05:38;;;;;;;10.75;8.73;;;5.90;86.40;;;;;;5032200;28;20052;-43
2022/05/03 02:08:12;;;;;;;12.48;9.07;;;6.00;86.40;;;;;;5033493;28;20351;-44
2022/05/03 02:10:53;;;;;;;10.40;8.70;;;6.00;86.30;;;;;;5032582;28;20032;-42
2022/05/03 02:16:53;;;;;;;9.95;8.43;;;6.20;86.20;;;;;;5032989;28;20064;-45
2022/05/03 02:19:45;;;;;;;10.48;8.85;;;6.20;86.20;;;;;;5031923;28;20397;-43
2022/05/03 02:22:36;;;;;;;11.57;8.80;;;6.20;86.20;;;;;;5032027;28;20036;-44
2022/05/03 02:25:32;;;;;;;13.43;8.82;;;6.30;86.30;;;;;;5047254;28;20445;-43
2022/05/03 02:28:38;;;;;;;10.95;9.65;;;6.40;86.40;;;;;;5030786;28;20034;-47
2022/05/03 02:31:08;;;;;;;10.82;8.55;;;6.40;86.30;;;;;;5028225;28;20095;-43
2022/05/03 02:34:00;;;;;;;11.48;9.00;;;6.50;86.20;;;;;;5032952;28;20111;-43
2022/05/03 02:36:27;;;;;;;11.07;9.45;;;6.60;86.40;;;;;;5032512;28;20029;-43
2022/05/03 02:39:03;;;;;;;11.27;8.68;;;6.60;86.50;;;;;;5031171;28;20056;-43
2022/05/03 02:41:38;;;;;;;13.45;9.77;;;6.70;86.40;;;;;;5031802;28;20332;-43
2022/05/03 02:44:08;;;;;;;11.48;9.40;;;6.70;86.40;;;;;;5031748;28;20060;-44
2022/05/03 02:47:09;;;;;;;10.65;9.20;;;6.70;86.30;;;;;;5031505;28;20029;-42
2022/05/03 02:50:01;;;;;;;11.93;10.00;;;6.80;86.20;;;;;;5030618;28;20080;-43
2022/05/03 02:52:40;;;;;;;10.98;9.13;;;6.80;86.30;;;;;;5039611;28;20083;-43
2022/05/03 02:55:25;;;;;;;13.07;9.77;;;6.80;86.10;;;;;;5050431;28;20029;-42
2022/05/03 02:58:36;;;;;;;11.40;8.82;;;6.80;86.20;;;;;;5050864;28;20128;-43
2022/05/03 03:04:32;;;;;;;14.60;9.48;;;6.90;86.40;;;;;;5047536;28;20043;-44
2022/05/03 03:06:59;;;;;;;13.15;10.05;;;6.90;86.40;;;;;;5047871;28;20032;-42
2022/05/03 03:09:51;;;;;;;11.77;9.68;;;6.90;86.60;;;;;;5050897;28;20044;-42
2022/05/03 03:13:00;;;;;;;11.75;9.85;;;7.00;86.60;;;;;;5052819;28;20052;-43
2022/05/03 03:15:28;;;;;;;11.20;10.00;;;6.90;86.70;;;;;;5048700;28;20112;-43
2022/05/03 03:17:58;;;;;;;11.45;10.25;;;7.10;86.90;;;;;;5048709;28;20116;-46
2022/05/03 03:20:28;;;;;;;12.65;10.90;;;7.10;86.80;;;;;;5036902;28;20017;-43
2022/05/03 03:22:55;;;;;;;13.02;10.35;;;7.20;86.90;;;;;;5025758;28;20132;-44
2022/05/03 03:25:23;;;;;;;14.05;11.20;;;7.20;87.00;;;;;;5052839;28;20029;-44
2022/05/03 03:27:53;;;;;;;14.23;12.02;;;7.20;87.00;;;;;;5051867;28;20049;-44
2022/05/03 03:30:22;;;;;;;13.30;11.85;;;7.30;87.00;;;;;;5031113;28;20025;-44
2022/05/03 03:33:07;;;;;;;14.70;12.15;;;7.30;87.20;;;;;;5052504;28;20033;-44
2022/05/03 03:35:35;;;;;;;13.23;11.48;;;7.30;87.30;;;;;;5049221;28;20029;-43
2022/05/03 03:38:07;;;;;;;13.55;12.15;;;7.40;87.40;;;;;;5050977;28;20060;-43
2022/05/03 03:40:34;;;;;;;16.35;12.75;;;7.40;87.40;;;;;;5051110;28;20057;-44
2022/05/03 03:43:01;;;;;;;14.23;12.63;;;7.40;87.30;;;;;;5033737;28;20469;-44
2022/05/03 03:45:31;;;;;;;14.85;13.25;;;7.50;87.40;;;;;;5050556;28;20441;-43
2022/05/03 03:48:03;;;;;;;17.83;14.50;;;7.50;87.50;;;;;;5049970;28;20032;-43
2022/05/03 03:50:29;;;;;;;17.77;14.48;;;7.50;87.70;;;;;;5052445;28;20048;-43
2022/05/03 03:52:56;;;;;;;17.02;13.60;;;7.50;87.70;;;;;;5033449;28;20084;-43
2022/05/03 03:55:23;;;;;;;17.63;15.50;;;7.60;87.80;;;;;;5032417;28;20115;-43
2022/05/03 03:57:53;;;;;;;18.88;16.58;;;7.70;87.80;;;;;;5032386;28;20026;-44
2022/05/03 04:00:20;;;;;;;21.55;17.42;;;7.70;87.90;;;;;;5017622;28;20026;-43
2022/05/03 04:02:46;;;;;;;20.27;18.15;;;7.70;88.00;;;;;;5018225;28;20021;-43
2022/05/03 04:05:22;;;;;;;24.08;17.77;;;7.70;88.10;;;;;;5016829;28;20053;-44
2022/05/03 04:07:50;;;;;;;21.80;17.60;;;7.80;88.20;;;;;;4995553;28;20044;-44
2022/05/03 04:10:18;;;;;;;21.33;17.33;;;7.90;88.20;;;;;;5011933;28;20065;-43
2022/05/03 04:12:47;;;;;;;21.90;19.38;;;7.90;88.20;;;;;;5015781;28;20474;-44
2022/05/03 04:15:13;;;;;;;21.38;17.15;;;7.90;88.20;;;;;;5015673;28;20022;-44
2022/05/03 04:17:39;;;;;;;25.42;19.90;;;8.00;88.30;;;;;;5015107;28;20045;-44
2022/05/03 04:20:06;;;;;;;20.38;17.77;;;8.00;88.20;;;;;;5014828;28;20135;-43
2022/05/03 04:22:34;;;;;;;22.20;18.80;;;8.00;88.20;;;;;;5015906;28;20030;-46
2022/05/03 04:25:03;;;;;;;23.08;18.77;;;8.10;88.20;;;;;;5018234;28;20175;-44
2022/05/03 04:27:30;;;;;;;26.35;21.50;;;8.10;88.30;;;;;;5015492;28;20054;-44
2022/05/03 04:29:58;;;;;;;24.63;19.55;;;8.10;88.30;;;;;;5014691;28;20046;-45
2022/05/03 04:32:29;;;;;;;25.30;21.27;;;8.20;88.40;;;;;;5013870;28;20025;-45
2022/05/03 04:34:57;;;;;;;27.85;20.52;;;8.20;88.40;;;;;;5013897;28;20386;-45
2022/05/03 04:37:23;;;;;;;24.70;19.40;;;8.30;88.40;;;;;;5014570;28;20034;-44
2022/05/03 04:39:50;;;;;;;30.65;21.42;;;8.30;88.50;;;;;;5014633;28;20344;-44
2022/05/03 04:42:17;;;;;;;24.67;20.50;;;8.40;88.50;;;;;;4995829;28;20042;-44
2022/05/03 04:44:44;;;;;;;26.98;21.45;;;8.40;88.50;;;;;;5018944;28;20029;-46
2022/05/03 04:47:10;;;;;;;29.10;22.33;;;8.40;88.60;;;;;;5015296;28;20116;-49
2022/05/03 04:49:37;;;;;;;27.13;21.65;;;8.40;88.70;;;;;;5014410;28;20026;-43
2022/05/03 04:52:02;;;;;;;25.88;21.60;;;8.40;88.70;;;;;;5023573;28;20063;-45
2022/05/03 04:54:30;;;;;;;27.63;22.05;;;8.40;88.80;;;;;;5054214;28;20051;-43
2022/05/03 04:57:02;;;;;;;28.80;22.40;;;8.50;89.00;;;;;;5051727;28;20116;-43
2022/05/03 04:59:32;;;;;;;25.70;20.73;;;8.50;89.10;;;;;;5051298;28;20120;-44
2022/05/03 05:01:59;;;;;;;23.48;19.67;;;8.50;89.20;;;;;;5041009;28;20095;-44
2022/05/03 05:04:29;;;;;;;26.95;21.17;;;8.60;89.30;;;;;;5044915;28;20095;-44
2022/05/03 05:06:59;;;;;;;27.50;22.50;;;8.60;89.50;;;;;;5035669;28;20043;-45
2022/05/03 05:09:25;;;;;;;32.92;23.00;;;8.60;89.50;;;;;;5047015;28;20397;-45
2022/05/03 05:11:51;;;;;;;27.20;22.60;;;8.60;89.60;;;;;;5053541;28;20033;-43
2022/05/03 05:14:20;;;;;;;30.15;21.20;;;8.70;89.70;;;;;;5053387;28;20037;-42
2022/05/03 05:16:48;;;;;;;25.60;20.65;;;8.60;89.80;;;;;;5050873;28;20526;-43
2022/05/03 05:19:15;;;;;;;27.83;15.30;;;8.70;89.90;;;;;;5053042;28;20036;-44
2022/05/03 05:21:42;;;;;;;28.75;11.40;;;8.70;90.00;;;;;;5052747;28;20028;-43
2022/05/03 05:24:13;;;;;;;33.30;9.90;;;8.80;90.10;;;;;;5052251;28;20067;-42
2022/05/03 05:26:43;;;;;;;36.20;10.05;;;8.80;90.00;;;;;;5050010;28;20036;-43
2022/05/03 05:29:09;;;;;;;31.83;9.25;;;8.70;89.90;;;;;;5053513;28;20095;-43
2022/05/03 05:31:37;;;;;;;28.88;11.40;;;8.70;89.80;;;;;;5036497;28;20466;-43
2022/05/03 05:34:04;;;;;;;28.92;9.02;;;8.70;89.50;;;;;;5033473;28;20079;-43
2022/05/03 05:36:29;;;;;;;21.27;7.43;;;8.70;89.40;;;;;;5036612;28;20106;-43
2022/05/03 05:38:56;;;;;;;22.98;7.22;;;8.60;89.20;;;;;;5051069;28;20025;-43
2022/05/03 05:41:23;;;;;;;18.42;8.85;;;8.60;89.00;;;;;;5051425;28;20104;-42
2022/05/03 05:43:49;;;;;;;20.98;9.23;;;8.70;88.90;;;;;;5052031;28;20622;-43
2022/05/03 05:46:16;;;;;;;28.33;8.10;;;8.60;88.60;;;;;;5053674;28;20033;-45
2022/05/03 05:48:42;;;;;;;22.50;6.88;;;8.60;88.50;;;;;;5034506;28;20492;-42
2022/05/03 05:51:13;;;;;;;21.52;6.50;;;8.60;88.20;;;;;;5043537;28;20105;-43
2022/05/03 05:53:39;;;;;;;25.23;6.78;;;8.60;88.00;;;;;;5003264;28;20038;-43
2022/05/03 05:56:07;;;;;;;27.15;8.50;;;8.50;87.80;;;;;;5013466;28;20056;-44
2022/05/03 05:58:33;;;;;;;18.38;6.13;;;8.60;87.70;;;;;;5012757;28;20056;-43
2022/05/03 06:01:01;;;;;;;24.33;8.65;;;8.50;87.60;;;;;;5016711;28;20465;-43
2022/05/03 06:03:28;;;;;;;26.02;7.05;;;8.60;87.60;;;;;;5013217;28;20025;-44
2022/05/03 06:05:59;;;;;;;18.98;7.13;;;8.60;87.50;;;;;;5013190;28;20037;-43
2022/05/03 06:08:25;;;;;;;12.20;5.78;;;8.60;87.60;;;;;;5013650;28;20096;-43
2022/05/03 06:10:57;;;;;;;18.30;6.07;;;8.60;87.40;;;;;;5013426;28;20080;-42
2022/05/03 06:13:25;;;;;;;19.83;6.68;;;8.70;87.50;;;;;;5013538;28;20454;-44
2022/05/03 06:15:53;;;;;;;15.32;5.50;;;8.60;87.30;;;;;;5013758;28;20553;-43
2022/05/03 06:18:20;;;;;;;27.90;6.88;;;8.60;87.50;;;;;;5043105;28;20463;-42
2022/05/03 06:20:47;;;;;;;23.00;6.43;;;8.60;87.60;;;;;;5013751;28;20044;-43
2022/05/03 06:23:13;;;;;;;22.73;7.53;;;8.60;87.60;;;;;;5012903;28;20064;-43
2022/05/03 06:25:40;;;;;;;30.23;7.00;;;8.70;87.80;;;;;;5045785;28;20451;-47
2022/05/03 06:28:07;;;;;;;21.90;5.82;;;8.70;87.70;;;;;;5012386;28;20084;-43
2022/05/03 06:30:33;;;;;;;20.20;5.57;;;8.80;87.80;;;;;;5013338;28;20121;-42
2022/05/03 06:33:00;;;;;;;18.40;7.07;;;8.80;87.70;;;;;;5011889;28;20354;-43
2022/05/03 06:35:28;;;;;;;21.13;6.65;;;8.80;87.70;;;;;;5026543;28;20109;-42
2022/05/03 06:37:55;;;;;;;20.63;5.88;;;8.80;87.50;;;;;;5012656;28;20034;-42
2022/05/03 06:40:22;;;;;;;23.83;7.18;;;8.80;87.30;;;;;;5010806;28;20400;-42
2022/05/03 06:42:49;;;;;;;20.25;6.40;;;8.80;87.30;;;;;;5012279;28;20030;-42
2022/05/03 06:45:16;;;;;;;20.13;5.70;;;8.80;87.20;;;;;;5012942;28;20105;-42
2022/05/03 06:47:44;;;;;;;25.52;6.95;;;8.80;86.90;;;;;;5012352;28;20113;-41
2022/05/03 06:50:10;;;;;;;25.63;8.38;;;8.80;86.50;;;;;;5013176;28;20056;-42
2022/05/03 06:52:37;;;;;;;25.65;4.90;;;8.70;85.70;;;;;;5027468;28;20053;-42
2022/05/03 06:55:05;;;;;;;23.88;5.22;;;8.80;85.50;;;;;;5049991;28;20035;-45
2022/05/03 06:57:32;;;;;;;16.25;4.38;;;8.90;84.50;;;;;;5049892;28;20029;-43
2022/05/03 07:00:04;;;;;;;20.10;5.68;;;8.90;84.00;;;;;;5041428;28;20053;-43
2022/05/03 07:02:32;;;;;;;18.17;4.35;;;9.00;83.40;;;;;;5046375;28;20037;-42
2022/05/03 07:05:05;;;;;;;16.83;4.10;;;9.10;82.90;;;;;;5050787;28;20029;-43
2022/05/03 07:07:33;;;;;;;12.93;4.85;;;9.20;82.80;;;;;;5050136;28;20029;-44
2022/05/03 07:10:00;;;;;;;13.20;3.15;;;9.30;82.40;;;;;;5050526;28;20115;-43
2022/05/03 07:12:28;;;;;;;11.70;3.45;;;9.40;81.50;;;;;;5035107;28;20436;-43
2022/05/03 07:15:04;;;;;;;9.48;3.00;;;9.50;80.60;;;;;;5050099;28;20029;-43
2022/05/03 07:23:03;;;;;;;20.05;3.70;;;9.60;79.20;;;;;;5052739;28;20035;-44
2022/05/03 07:25:30;;;;;;;13.52;3.08;;;9.80;78.80;;;;;;5047824;28;20076;-44
2022/05/03 07:27:57;;;;;;;13.52;3.22;;;9.90;78.60;;;;;;5034826;28;20032;-46
2022/05/03 07:30:24;;;;;;;22.30;4.90;;;10.10;78.80;;;;;;5052292;28;20112;-46
2022/05/03 07:32:51;;;;;;;19.63;3.75;;;10.00;76.90;;;;;;5052505;28;20449;-44
2022/05/03 07:35:18;;;;;;;10.70;2.88;;;10.10;76.70;;;;;;5052342;28;20431;-46
2022/05/03 07:37:44;;;;;;;11.30;2.88;;;10.20;76.30;;;;;;5054335;28;20075;-44
2022/05/03 07:40:14;;;;;;;16.73;4.60;;;10.40;75.80;;;;;;5054413;28;20040;-45
2022/05/03 07:42:41;;;;;;;11.95;3.97;;;10.50;74.80;;;;;;5055844;28;20048;-45
2022/05/03 07:45:09;;;;;;;10.85;2.75;;;10.50;74.30;;;;;;5053597;28;20377;-47
2022/05/03 07:47:36;;;;;;;14.65;3.97;;;10.40;73.70;;;;;;5049135;28;20029;-44
2022/05/03 07:50:05;;;;;;;8.20;2.45;;;10.40;73.60;;;;;;5051241;28;20028;-45
2022/05/03 07:52:30;;;;;;;14.93;3.33;;;10.40;73.40;;;;;;5054591;28;20124;-47
2022/05/03 07:54:57;;;;;;;15.18;2.95;;;10.40;73.20;;;;;;5036874;28;20112;-44
2022/05/03 07:57:26;;;;;;;8.23;2.72;;;10.20;73.00;;;;;;5055741;28;20457;-45
2022/05/03 07:59:55;;;;;;;8.80;2.53;;;10.20;73.30;;;;;;5035552;28;20057;-44
2022/05/03 08:02:26;;;;;;;14.05;3.15;;;10.40;73.30;;;;;;5043582;28;20286;-45
2022/05/03 08:04:54;;;;;;;12.55;2.53;;;10.40;72.60;;;;;;5068132;28;20033;-44
2022/05/03 08:07:21;;;;;;;9.77;2.88;;;10.40;72.60;;;;;;5050626;28;20437;-44
2022/05/03 08:09:53;;;;;;;12.73;3.30;;;10.50;72.80;;;;;;5053172;28;20032;-45
2022/05/03 08:12:22;;;;;;;10.35;3.00;;;10.60;71.40;;;;;;5014972;28;20049;-46
2022/05/03 08:14:48;;;;;;;7.07;2.22;;;10.80;69.60;;;;;;5054505;28;20082;-46
2022/05/03 08:17:15;;;;;;;10.00;1.65;;;10.90;69.00;;;;;;5053955;28;20029;-45
2022/05/03 08:19:44;;;;;;;10.52;2.10;;;10.90;68.70;;;;;;5053728;28;20158;-46
2022/05/03 08:22:11;;;;;;;9.23;3.45;;;11.10;68.60;;;;;;5054043;28;20040;-47
2022/05/03 08:24:38;;;;;;;14.73;2.90;;;11.20;68.40;;;;;;5053528;28;20633;-45
2022/05/03 08:27:05;;;;;;;8.57;2.42;;;11.20;69.20;;;;;;5054165;28;20068;-44
2022/05/03 08:29:31;;;;;;;11.18;3.00;;;11.20;68.80;;;;;;5052608;28;20119;-45
2022/05/03 08:31:59;;;;;;;8.93;2.95;;;11.30;69.50;;;;;;5051951;28;20025;-47
2022/05/03 08:34:29;;;;;;;12.13;2.42;;;11.50;68.70;;;;;;5053492;28;20029;-44
2022/05/03 08:42:28;;;;;;;10.73;2.90;;;11.40;67.10;;;;;;5054209;28;20056;-47
2022/05/03 08:44:56;;;;;;;12.25;2.53;;;11.50;67.60;;;;;;5053558;28;20051;-45
2022/05/03 08:47:26;;;;;;;11.65;2.83;;;11.60;67.30;;;;;;5054253;28;20108;-45
2022/05/03 08:50:11;;;;;;;9.85;1.85;;;11.50;66.50;;;;;;5049217;28;20064;-45
2022/05/03 08:53:05;;;;;;;7.80;2.92;;;11.80;67.20;;;;;;5052912;28;20041;-44
2022/05/03 08:55:32;;;;;;;10.18;2.38;;;11.90;65.40;;;;;;5050461;28;20041;-46
2022/05/03 08:57:59;;;;;;;11.82;2.28;;;12.00;66.60;;;;;;5051837;28;20029;-46
2022/05/03 09:00:25;;;;;;;7.43;2.47;;;12.20;64.10;;;;;;5032879;28;20064;-45
2022/05/03 09:02:58;;;;;;;11.80;2.78;;;12.30;64.80;;;;;;5048681;28;20120;-46
2022/05/03 09:05:27;;;;;;;12.02;2.92;;;12.40;64.10;;;;;;5052811;28;20472;-46
2022/05/03 09:08:04;;;;;;;12.40;2.78;;;12.40;63.70;;;;;;5053479;28;20021;-45
2022/05/03 09:10:33;;;;;;;8.55;2.05;;;12.30;63.00;;;;;;5052762;28;20044;-46
2022/05/03 09:13:22;;;;;;;12.25;2.80;;;12.40;63.20;;;;;;5053569;28;20112;-47
2022/05/03 09:16:08;;;;;;;14.23;3.27;;;12.80;63.40;;;;;;5066213;28;20024;-45
2022/05/03 09:18:35;;;;;;;9.48;2.20;;;12.90;62.10;;;;;;5034644;28;20025;-45
2022/05/03 09:24:09;;;;;;;11.35;2.70;;;12.60;61.30;;;;;;5053928;28;20139;-45
2022/05/03 09:26:37;;;;;;;11.38;2.45;;;12.40;62.20;;;;;;5050723;28;20045;-46
2022/05/03 09:29:22;;;;;;;10.82;2.55;;;12.40;62.90;;;;;;5033832;28;20025;-45
2022/05/03 09:31:49;;;;;;;12.32;3.47;;;12.50;62.80;;;;;;5052125;28;20075;-47
2022/05/03 09:34:33;;;;;;;9.73;2.97;;;12.90;60.50;;;;;;5052297;28;20037;-46
2022/05/03 09:37:09;;;;;;;8.70;2.22;;;13.40;59.10;;;;;;5036379;28;20064;-46
2022/05/03 09:39:47;;;;;;;10.18;3.47;;;13.20;59.90;;;;;;5051796;28;20053;-46
2022/05/03 09:42:34;;;;;;;10.27;2.50;;;13.40;59.60;;;;;;5052165;28;20028;-45
2022/05/03 09:45:02;;;;;;;10.45;3.28;;;13.70;58.30;;;;;;5052276;28;20101;-47
2022/05/03 09:47:48;;;;;;;7.13;2.78;;;13.80;56.80;;;;;;5052622;28;20031;-49
2022/05/03 09:50:43;;;;;;;11.02;3.42;;;14.20;56.80;;;;;;5048688;28;20025;-45
2022/05/03 09:53:22;;;;;;;10.23;2.65;;;14.20;54.30;;;;;;5051157;28;20045;-45
2022/05/03 09:55:50;;;;;;;10.15;3.22;;;13.80;54.00;;;;;;5052577;28;20637;-48
2022/05/03 09:58:19;;;;;;;10.30;2.25;;;13.40;55.50;;;;;;5051559;28;20033;-47
2022/05/03 10:00:48;;;;;;;7.68;2.25;;;13.40;56.80;;;;;;5065602;28;20187;-45
2022/05/03 10:03:15;;;;;;;10.98;3.05;;;13.40;57.00;;;;;;5047760;28;20125;-45
2022/05/03 10:05:48;;;;;;;9.60;3.00;;;13.60;57.10;;;;;;5052055;28;20342;-45
2022/05/03 10:08:17;;;;;;;9.63;3.50;;;13.40;57.30;;;;;;5051595;28;20033;-46
2022/05/03 10:10:44;;;;;;;8.75;2.03;;;13.40;56.40;;;;;;5050806;28;20029;-46
2022/05/03 10:13:14;;;;;;;11.63;2.35;;;13.40;56.30;;;;;;5052074;28;20045;-46
2022/05/03 10:21:31;;;;;;;7.72;2.17;;;13.50;57.70;;;;;;5037040;28;20039;-45
2022/05/03 10:24:11;;;;;;;9.82;2.63;;;13.30;56.50;;;;;;5050776;28;20036;-45
2022/05/03 10:27:05;;;;;;;7.10;2.47;;;13.20;58.00;;;;;;5052548;28;20373;-46
2022/05/03 10:29:35;;;;;;;14.30;2.65;;;12.90;58.20;;;;;;5049459;28;20449;-46
2022/05/03 10:32:07;;;;;;;14.50;3.05;;;13.00;58.30;;;;;;5053043;28;20107;-45
2022/05/03 10:34:57;;;;;;;9.60;2.50;;;12.90;59.80;;;;;;5050871;28;20036;-45
2022/05/03 10:37:34;;;;;;;;;;;13.00;58.30;;;;;;5052104;28;20528;-47
2022/05/03 10:40:10;;;;;;;10.48;2.15;;;13.10;59.50;;;;;;5051148;28;20337;-45
2022/05/03 10:42:39;;;;;;;8.93;2.22;;;13.00;58.70;;;;;;5034080;28;20040;-45
2022/05/03 10:45:10;;;;;;;8.75;2.92;;;13.40;58.80;;;;;;5052384;28;20473;-45
2022/05/03 10:47:53;;;;;;;12.38;3.15;;;13.90;56.20;;;;;;5049558;28;20091;-46
2022/05/03 10:50:32;;;;;;;11.77;2.50;;;14.20;53.50;;;;;;5049974;28;20025;-50
2022/05/03 10:53:07;;;;;;;12.25;2.97;;;14.20;54.70;;;;;;5051006;28;20147;-46
2022/05/03 10:55:39;;;;;;;11.80;2.85;;;14.50;54.70;;;;;;5050206;28;20103;-48
2022/05/03 10:58:39;;;;;;;9.75;2.42;;;14.40;52.90;;;;;;5046548;28;20032;-45
2022/05/03 11:01:21;;;;;;;15.60;3.53;;;14.00;52.60;;;;;;5050483;28;20041;-46
2022/05/03 11:03:57;;;;;;;11.43;2.70;;;14.10;53.40;;;;;;5043091;28;20108;-46
2022/05/03 11:06:25;;;;;;;8.80;3.35;;;13.50;54.20;;;;;;5040453;28;20025;-46
2022/05/03 11:11:47;;;;;;;13.35;2.40;;;13.10;56.60;;;;;;5056943;28;20037;-46
2022/05/03 11:14:20;;;;;;;9.90;2.25;;;13.20;57.80;;;;;;5053931;28;20025;-47
2022/05/03 11:17:01;;;;;;;9.85;2.78;;;13.30;59.40;;;;;;5037248;28;20506;-47
2022/05/03 11:19:39;;;;;;;9.38;2.28;;;13.40;57.60;;;;;;5054902;28;20025;-45
2022/05/03 11:22:31;;;;;;;10.63;2.60;;;13.30;56.40;;;;;;5056292;28;20025;-45
2022/05/03 11:25:02;;;;;;;11.27;2.95;;;12.90;57.10;;;;;;5023511;28;20490;-44
2022/05/03 11:27:30;;;;;;;10.45;2.50;;;12.90;58.50;;;;;;5050201;28;20473;-48
2022/05/03 11:30:15;;;;;;;9.38;2.90;;;13.10;58.10;;;;;;5036202;28;20025;-47
2022/05/03 11:32:42;;;;;;;10.70;3.08;;;13.20;57.40;;;;;;5043049;28;20029;-45
2022/05/03 11:35:16;;;;;;;10.55;2.15;;;13.20;57.40;;;;;;5054814;28;20057;-47
2022/05/03 11:37:49;;;;;;;11.32;2.78;;;12.90;57.60;;;;;;5054284;28;20116;-45
2022/05/03 11:40:19;;;;;;;13.45;3.67;;;12.70;58.20;;;;;;5054734;28;20024;-48
2022/05/03 11:42:46;;;;;;;11.68;3.30;;;12.80;57.00;;;;;;5044115;28;20033;-45
2022/05/03 11:45:16;;;;;;;10.32;2.45;;;12.80;59.20;;;;;;5018716;28;20033;-45
2022/05/03 11:47:47;;;;;;;10.65;3.33;;;12.80;57.30;;;;;;5045657;28;20037;-45
2022/05/03 11:56:00;;;;;;;10.93;3.10;;;12.90;58.50;;;;;;5055129;28;20117;-45
2022/05/03 11:58:32;;;;;;;6.75;2.78;;;13.20;57.00;;;;;;5054150;28;20039;-44
2022/05/03 12:00:57;;;;;;;9.35;2.50;;;13.50;56.60;;;;;;5047992;28;20071;-49
2022/05/03 12:03:24;;;;;;;10.90;2.80;;;13.60;57.20;;;;;;5037061;28;20069;-46
2022/05/03 12:05:59;;;;;;;9.85;2.75;;;13.70;54.20;;;;;;5054485;28;20037;-45
2022/05/03 12:08:28;;;;;;;6.07;2.05;;;13.90;56.40;;;;;;5036718;28;20120;-45
2022/05/03 12:10:56;;;;;;;11.65;2.90;;;13.90;53.70;;;;;;5054636;28;20110;-46
2022/05/03 12:13:40;;;;;;;11.48;2.70;;;13.60;55.10;;;;;;5051947;28;20025;-45
2022/05/03 12:16:15;;;;;;;8.32;2.90;;;13.20;54.40;;;;;;5054184;28;20116;-46
2022/05/03 12:18:48;;;;;;;11.13;3.33;;;12.90;56.80;;;;;;5054304;28;20068;-48
2022/05/03 12:21:42;;;;;;;10.30;2.85;;;12.70;57.00;;;;;;5053231;28;20025;-45
2022/05/03 12:24:09;;;;;;;7.20;1.90;;;12.60;58.10;;;;;;5068559;28;20087;-46
2022/05/03 12:26:40;;;;;;;8.65;2.45;;;12.90;57.90;;;;;;5055357;28;20086;-47
2022/05/03 12:29:09;;;;;;;12.52;3.50;;;12.90;56.30;;;;;;5035537;28;20025;-48
2022/05/03 12:31:40;;;;;;;11.38;2.67;;;12.70;57.80;;;;;;5053696;28;20450;-46
2022/05/03 12:34:11;;;;;;;12.15;3.30;;;12.40;58.50;;;;;;5067805;28;20052;-46
2022/05/03 12:37:03;;;;;;;11.23;3.38;;;12.50;58.90;;;;;;5053861;28;20029;-45
2022/05/03 12:39:35;;;;;;;10.63;2.50;;;12.40;58.20;;;;;;5053680;28;20115;-44
2022/05/03 12:42:19;;;;;;;16.30;4.45;;;12.30;58.20;;;;;;5055149;28;20021;-45
2022/05/03 12:45:09;;;;;;;11.85;2.58;;;12.20;58.50;;;;;;5035930;28;20082;-45
2022/05/03 12:47:36;;;;;;;9.77;2.70;;;12.20;59.00;;;;;;5055443;28;20044;-45
2022/05/03 12:50:03;;;;;;;15.80;2.33;;;12.20;59.90;;;;;;5052599;28;20374;-44
2022/05/03 12:52:29;;;;;;;12.55;3.20;;;12.10;58.00;;;;;;5042588;28;20051;-46
2022/05/03 12:54:55;;;;;;;10.55;2.63;;;12.30;59.10;;;;;;5029979;28;20112;-45
2022/05/03 13:00:07;;;;;;;13.50;3.15;;;12.30;60.20;;;;;;5013032;28;20092;-44
2022/05/03 13:02:34;;;;;;;12.80;3.65;;;12.40;59.60;;;;;;5025474;28;20030;-45
2022/05/03 13:05:01;;;;;;;11.63;2.72;;;12.40;58.30;;;;;;5015028;28;20038;-45
2022/05/03 13:07:27;;;;;;;12.80;3.28;;;12.40;58.30;;;;;;5015599;28;20122;-45
2022/05/03 13:09:55;;;;;;;11.98;3.25;;;12.40;57.60;;;;;;5027071;28;20116;-45
2022/05/03 13:12:24;;;;;;;8.77;2.92;;;12.50;57.50;;;;;;5014878;28;20100;-45
2022/05/03 13:14:51;;;;;;;14.00;2.97;;;12.60;56.60;;;;;;5016566;28;20038;-44
2022/05/03 13:17:18;;;;;;;11.65;3.47;;;12.60;57.00;;;;;;5014931;28;20112;-45
2022/05/03 13:19:47;;;;;;;12.13;3.25;;;12.70;57.30;;;;;;5014259;28;20109;-49
2022/05/03 13:22:13;;;;;;;13.38;3.20;;;12.60;57.00;;;;;;5045124;28;20057;-45
2022/05/03 13:24:39;;;;;;;7.85;2.65;;;12.40;56.90;;;;;;5015983;28;20466;-46
2022/05/03 13:27:06;;;;;;;10.23;2.85;;;12.30;57.40;;;;;;5009153;28;20045;-45
2022/05/03 13:29:33;;;;;;;11.63;3.13;;;12.40;56.60;;;;;;4996764;28;20029;-47
2022/05/03 13:32:02;;;;;;;15.60;3.88;;;12.60;57.90;;;;;;5012910;28;20116;-46
2022/05/03 13:34:29;;;;;;;8.35;2.45;;;12.30;55.70;;;;;;5012313;28;20040;-45
2022/05/03 13:42:26;;;;;;;6.72;2.40;;;12.40;57.40;;;;;;5013663;28;20088;-46
2022/05/03 13:44:54;;;;;;;10.10;2.55;;;12.60;57.50;;;;;;5013856;28;20120;-45
2022/05/03 13:47:20;;;;;;;14.68;3.20;;;12.30;56.10;;;;;;5013836;28;20585;-45
2022/05/03 13:49:48;;;;;;;11.20;4.22;;;12.10;56.70;;;;;;5013325;28;20472;-46
2022/05/03 13:52:13;;;;;;;6.78;2.67;;;12.30;57.70;;;;;;5020022;28;20048;-45
2022/05/03 13:54:40;;;;;;;13.27;2.78;;;12.40;57.30;;;;;;5050987;28;20021;-47
2022/05/03 13:57:07;;;;;;;14.60;3.13;;;12.70;57.20;;;;;;5052554;28;20354;-46
2022/05/03 13:59:36;;;;;;;5.78;2.13;;;12.60;57.10;;;;;;5048925;28;20804;-43
2022/05/03 14:02:08;;;;;;;11.52;3.78;;;12.30;57.90;;;;;;5048394;28;20506;-44